sensor_id;sensor_type;location;lat;lon;timestamp;P1;durP1;ratioP1;P2;durP2;ratioP2
25437;SDS011;13364;49.084;9.978;2023-08-06T00:00:59;3.00;;;2.35;;
25437;SDS011;13364;49.084;9.978;2023-08-06T00:03:26;2.42;;;2.00;;
25437;SDS011;13364;49.084;9.978;2023-08-06T00:05:53;5.18;;;2.17;;
25437;SDS011;13364;49.084;9.978;2023-08-06T00:08:20;3.63;;;2.25;;
25437;SDS011;13364;49.084;9.978;2023-08-06T00:10:47;4.07;;;1.85;;
25437;SDS011;13364;49.084;9.978;2023-08-06T00:13:15;2.70;;;2.03;;
25437;SDS011;13364;49.084;9.978;2023-08-06T00:15:42;5.78;;;2.30;;
25437;SDS011;13364;49.084;9.978;2023-08-06T00:18:09;2.42;;;2.22;;
25437;SDS011;13364;49.084;9.978;2023-08-06T00:20:38;3.65;;;2.50;;
25437;SDS011;13364;49.084;9.978;2023-08-06T00:23:07;3.38;;;2.22;;
25437;SDS011;13364;49.084;9.978;2023-08-06T00:25:35;4.93;;;2.30;;
25437;SDS011;13364;49.084;9.978;2023-08-06T00:28:16;4.25;;;1.88;;
25437;SDS011;13364;49.084;9.978;2023-08-06T00:30:43;2.90;;;1.77;;
25437;SDS011;13364;49.084;9.978;2023-08-06T00:33:10;2.78;;;1.83;;
25437;SDS011;13364;49.084;9.978;2023-08-06T00:35:37;2.70;;;1.90;;
25437;SDS011;13364;49.084;9.978;2023-08-06T00:38:04;3.85;;;2.10;;
25437;SDS011;13364;49.084;9.978;2023-08-06T00:40:31;2.92;;;1.95;;
25437;SDS011;13364;49.084;9.978;2023-08-06T00:42:58;4.32;;;1.98;;
25437;SDS011;13364;49.084;9.978;2023-08-06T00:45:25;2.22;;;2.03;;
25437;SDS011;13364;49.084;9.978;2023-08-06T00:47:54;4.63;;;2.25;;
25437;SDS011;13364;49.084;9.978;2023-08-06T00:50:21;4.82;;;1.88;;
25437;SDS011;13364;49.084;9.978;2023-08-06T00:52:49;3.33;;;2.00;;
25437;SDS011;13364;49.084;9.978;2023-08-06T00:55:16;3.17;;;2.00;;
25437;SDS011;13364;49.084;9.978;2023-08-06T00:57:44;3.83;;;1.92;;
25437;SDS011;13364;49.084;9.978;2023-08-06T01:00:11;3.78;;;2.10;;
25437;SDS011;13364;49.084;9.978;2023-08-06T01:02:38;2.15;;;1.90;;
25437;SDS011;13364;49.084;9.978;2023-08-06T01:05:06;3.22;;;1.80;;
25437;SDS011;13364;49.084;9.978;2023-08-06T01:10:28;3.00;;;2.20;;
25437;SDS011;13364;49.084;9.978;2023-08-06T01:15:55;2.10;;;1.90;;
25437;SDS011;13364;49.084;9.978;2023-08-06T01:18:26;4.90;;;2.40;;
25437;SDS011;13364;49.084;9.978;2023-08-06T01:20:53;3.97;;;2.58;;
25437;SDS011;13364;49.084;9.978;2023-08-06T01:23:20;3.53;;;2.58;;
25437;SDS011;13364;49.084;9.978;2023-08-06T01:26:01;2.28;;;2.08;;
25437;SDS011;13364;49.084;9.978;2023-08-06T01:31:27;2.60;;;2.40;;
25437;SDS011;13364;49.084;9.978;2023-08-06T01:34:01;2.35;;;2.15;;
25437;SDS011;13364;49.084;9.978;2023-08-06T01:36:31;3.95;;;2.67;;
25437;SDS011;13364;49.084;9.978;2023-08-06T01:38:59;3.75;;;2.20;;
25437;SDS011;13364;49.084;9.978;2023-08-06T01:41:26;4.72;;;2.50;;
25437;SDS011;13364;49.084;9.978;2023-08-06T01:43:53;5.20;;;2.63;;
25437;SDS011;13364;49.084;9.978;2023-08-06T01:46:20;5.82;;;2.78;;
25437;SDS011;13364;49.084;9.978;2023-08-06T01:48:47;6.55;;;2.95;;
25437;SDS011;13364;49.084;9.978;2023-08-06T01:51:14;4.13;;;2.92;;
25437;SDS011;13364;49.084;9.978;2023-08-06T01:53:41;4.70;;;2.78;;
25437;SDS011;13364;49.084;9.978;2023-08-06T01:56:08;3.67;;;3.10;;
25437;SDS011;13364;49.084;9.978;2023-08-06T01:58:36;3.20;;;2.90;;
25437;SDS011;13364;49.084;9.978;2023-08-06T02:01:03;4.93;;;2.67;;
25437;SDS011;13364;49.084;9.978;2023-08-06T02:03:30;5.50;;;3.30;;
25437;SDS011;13364;49.084;9.978;2023-08-06T02:05:57;5.55;;;3.33;;
25437;SDS011;13364;49.084;9.978;2023-08-06T02:11:03;4.78;;;3.38;;
25437;SDS011;13364;49.084;9.978;2023-08-06T02:13:31;3.38;;;3.08;;
25437;SDS011;13364;49.084;9.978;2023-08-06T02:15:58;3.60;;;3.25;;
25437;SDS011;13364;49.084;9.978;2023-08-06T02:18:25;5.20;;;3.15;;
25437;SDS011;13364;49.084;9.978;2023-08-06T02:20:58;4.38;;;3.80;;
25437;SDS011;13364;49.084;9.978;2023-08-06T02:23:27;3.88;;;3.53;;
25437;SDS011;13364;49.084;9.978;2023-08-06T02:26:01;4.10;;;3.50;;
25437;SDS011;13364;49.084;9.978;2023-08-06T02:28:30;4.72;;;3.47;;
25437;SDS011;13364;49.084;9.978;2023-08-06T02:30:58;5.18;;;3.40;;
25437;SDS011;13364;49.084;9.978;2023-08-06T02:33:25;4.20;;;3.80;;
25437;SDS011;13364;49.084;9.978;2023-08-06T02:36:00;4.93;;;3.30;;
25437;SDS011;13364;49.084;9.978;2023-08-06T02:38:30;4.30;;;3.33;;
25437;SDS011;13364;49.084;9.978;2023-08-06T02:40:58;4.57;;;3.38;;
25437;SDS011;13364;49.084;9.978;2023-08-06T02:43:25;3.90;;;3.53;;
25437;SDS011;13364;49.084;9.978;2023-08-06T02:45:56;4.57;;;4.07;;
25437;SDS011;13364;49.084;9.978;2023-08-06T02:48:24;3.75;;;3.33;;
25437;SDS011;13364;49.084;9.978;2023-08-06T02:50:52;4.05;;;3.38;;
25437;SDS011;13364;49.084;9.978;2023-08-06T02:53:19;4.13;;;3.63;;
25437;SDS011;13364;49.084;9.978;2023-08-06T02:55:48;4.28;;;3.90;;
25437;SDS011;13364;49.084;9.978;2023-08-06T02:58:19;6.85;;;3.67;;
25437;SDS011;13364;49.084;9.978;2023-08-06T03:01:01;4.93;;;4.05;;
25437;SDS011;13364;49.084;9.978;2023-08-06T03:03:33;5.07;;;4.57;;
25437;SDS011;13364;49.084;9.978;2023-08-06T03:06:02;5.80;;;3.83;;
25437;SDS011;13364;49.084;9.978;2023-08-06T03:08:37;7.57;;;4.43;;
25437;SDS011;13364;49.084;9.978;2023-08-06T03:11:04;5.88;;;4.03;;
25437;SDS011;13364;49.084;9.978;2023-08-06T03:13:31;4.78;;;3.80;;
25437;SDS011;13364;49.084;9.978;2023-08-06T03:15:59;6.43;;;4.05;;
25437;SDS011;13364;49.084;9.978;2023-08-06T03:18:29;5.10;;;4.40;;
25437;SDS011;13364;49.084;9.978;2023-08-06T03:20:59;5.25;;;3.97;;
25437;SDS011;13364;49.084;9.978;2023-08-06T03:23:28;6.65;;;4.10;;
25437;SDS011;13364;49.084;9.978;2023-08-06T03:25:56;4.47;;;4.00;;
25437;SDS011;13364;49.084;9.978;2023-08-06T03:32:00;4.83;;;4.00;;
25437;SDS011;13364;49.084;9.978;2023-08-06T03:34:28;4.60;;;3.90;;
25437;SDS011;13364;49.084;9.978;2023-08-06T03:36:56;6.85;;;3.92;;
25437;SDS011;13364;49.084;9.978;2023-08-06T03:39:23;4.95;;;3.67;;
25437;SDS011;13364;49.084;9.978;2023-08-06T03:41:50;4.47;;;3.90;;
25437;SDS011;13364;49.084;9.978;2023-08-06T03:44:17;6.50;;;4.03;;
25437;SDS011;13364;49.084;9.978;2023-08-06T03:46:45;6.47;;;4.20;;
25437;SDS011;13364;49.084;9.978;2023-08-06T03:49:12;4.13;;;3.72;;
25437;SDS011;13364;49.084;9.978;2023-08-06T03:51:40;4.72;;;3.80;;
25437;SDS011;13364;49.084;9.978;2023-08-06T03:54:07;6.18;;;3.70;;
25437;SDS011;13364;49.084;9.978;2023-08-06T03:56:34;4.28;;;3.60;;
25437;SDS011;13364;49.084;9.978;2023-08-06T03:59:01;5.32;;;3.55;;
25437;SDS011;13364;49.084;9.978;2023-08-06T04:01:29;3.80;;;2.90;;
25437;SDS011;13364;49.084;9.978;2023-08-06T04:03:56;3.97;;;3.30;;
25437;SDS011;13364;49.084;9.978;2023-08-06T04:06:23;4.78;;;3.40;;
25437;SDS011;13364;49.084;9.978;2023-08-06T04:08:51;3.85;;;3.17;;
25437;SDS011;13364;49.084;9.978;2023-08-06T04:11:18;6.45;;;3.40;;
25437;SDS011;13364;49.084;9.978;2023-08-06T04:13:45;5.45;;;3.60;;
25437;SDS011;13364;49.084;9.978;2023-08-06T04:16:12;6.43;;;3.08;;
25437;SDS011;13364;49.084;9.978;2023-08-06T04:18:41;3.33;;;2.97;;
25437;SDS011;13364;49.084;9.978;2023-08-06T04:21:08;4.88;;;3.50;;
25437;SDS011;13364;49.084;9.978;2023-08-06T04:23:35;3.92;;;3.50;;
25437;SDS011;13364;49.084;9.978;2023-08-06T04:26:05;8.90;;;3.38;;
25437;SDS011;13364;49.084;9.978;2023-08-06T04:28:34;5.03;;;3.43;;
25437;SDS011;13364;49.084;9.978;2023-08-06T04:31:01;6.25;;;3.35;;
25437;SDS011;13364;49.084;9.978;2023-08-06T04:33:32;5.72;;;3.60;;
25437;SDS011;13364;49.084;9.978;2023-08-06T04:36:04;6.20;;;2.80;;
25437;SDS011;13364;49.084;9.978;2023-08-06T04:38:32;3.92;;;3.08;;
25437;SDS011;13364;49.084;9.978;2023-08-06T04:41:01;5.53;;;3.38;;
25437;SDS011;13364;49.084;9.978;2023-08-06T04:43:29;4.30;;;3.25;;
25437;SDS011;13364;49.084;9.978;2023-08-06T04:45:56;3.47;;;3.13;;
25437;SDS011;13364;49.084;9.978;2023-08-06T04:48:23;4.35;;;2.72;;
25437;SDS011;13364;49.084;9.978;2023-08-06T04:50:50;6.43;;;3.30;;
25437;SDS011;13364;49.084;9.978;2023-08-06T04:53:18;5.75;;;3.47;;
25437;SDS011;13364;49.084;9.978;2023-08-06T04:55:45;3.95;;;3.40;;
25437;SDS011;13364;49.084;9.978;2023-08-06T04:58:12;4.25;;;3.38;;
25437;SDS011;13364;49.084;9.978;2023-08-06T05:00:40;6.60;;;3.47;;
25437;SDS011;13364;49.084;9.978;2023-08-06T05:03:07;3.40;;;2.80;;
25437;SDS011;13364;49.084;9.978;2023-08-06T05:09:58;5.38;;;3.00;;
25437;SDS011;13364;49.084;9.978;2023-08-06T05:12:25;5.28;;;2.92;;
25437;SDS011;13364;49.084;9.978;2023-08-06T05:14:52;4.05;;;3.15;;
25437;SDS011;13364;49.084;9.978;2023-08-06T05:17:19;3.67;;;2.83;;
25437;SDS011;13364;49.084;9.978;2023-08-06T05:19:47;4.72;;;2.80;;
25437;SDS011;13364;49.084;9.978;2023-08-06T05:22:14;5.03;;;2.80;;
25437;SDS011;13364;49.084;9.978;2023-08-06T05:24:41;5.53;;;2.90;;
25437;SDS011;13364;49.084;9.978;2023-08-06T05:27:08;5.00;;;2.28;;
25437;SDS011;13364;49.084;9.978;2023-08-06T05:29:35;3.83;;;3.00;;
25437;SDS011;13364;49.084;9.978;2023-08-06T05:32:02;3.30;;;2.30;;
25437;SDS011;13364;49.084;9.978;2023-08-06T05:34:30;5.68;;;2.70;;
25437;SDS011;13364;49.084;9.978;2023-08-06T05:36:57;5.05;;;2.65;;
25437;SDS011;13364;49.084;9.978;2023-08-06T05:39:24;6.07;;;2.50;;
25437;SDS011;13364;49.084;9.978;2023-08-06T05:41:51;4.28;;;2.67;;
25437;SDS011;13364;49.084;9.978;2023-08-06T05:44:19;3.50;;;2.65;;
25437;SDS011;13364;49.084;9.978;2023-08-06T05:46:46;4.22;;;2.60;;
25437;SDS011;13364;49.084;9.978;2023-08-06T05:49:13;3.72;;;2.53;;
25437;SDS011;13364;49.084;9.978;2023-08-06T05:51:41;4.22;;;2.35;;
25437;SDS011;13364;49.084;9.978;2023-08-06T05:54:08;6.88;;;2.63;;
25437;SDS011;13364;49.084;9.978;2023-08-06T05:56:35;4.22;;;2.10;;
25437;SDS011;13364;49.084;9.978;2023-08-06T05:59:02;2.90;;;2.00;;
25437;SDS011;13364;49.084;9.978;2023-08-06T06:01:29;4.13;;;1.90;;
25437;SDS011;13364;49.084;9.978;2023-08-06T06:03:56;2.90;;;2.15;;
25437;SDS011;13364;49.084;9.978;2023-08-06T06:06:23;3.38;;;1.95;;
25437;SDS011;13364;49.084;9.978;2023-08-06T06:08:50;2.63;;;2.30;;
25437;SDS011;13364;49.084;9.978;2023-08-06T06:11:17;6.25;;;2.50;;
25437;SDS011;13364;49.084;9.978;2023-08-06T06:13:50;3.40;;;2.28;;
25437;SDS011;13364;49.084;9.978;2023-08-06T06:16:17;4.50;;;2.28;;
25437;SDS011;13364;49.084;9.978;2023-08-06T06:18:44;5.35;;;2.08;;
25437;SDS011;13364;49.084;9.978;2023-08-06T06:21:11;5.93;;;2.47;;
25437;SDS011;13364;49.084;9.978;2023-08-06T06:23:39;5.05;;;2.67;;
25437;SDS011;13364;49.084;9.978;2023-08-06T06:26:06;3.70;;;2.00;;
25437;SDS011;13364;49.084;9.978;2023-08-06T06:28:33;3.38;;;1.92;;
25437;SDS011;13364;49.084;9.978;2023-08-06T06:31:00;3.10;;;2.45;;
25437;SDS011;13364;49.084;9.978;2023-08-06T06:33:28;4.38;;;2.35;;
25437;SDS011;13364;49.084;9.978;2023-08-06T06:35:55;2.85;;;2.30;;
25437;SDS011;13364;49.084;9.978;2023-08-06T06:38:22;2.58;;;1.90;;
25437;SDS011;13364;49.084;9.978;2023-08-06T06:40:55;2.85;;;2.22;;
25437;SDS011;13364;49.084;9.978;2023-08-06T06:43:23;4.10;;;2.20;;
25437;SDS011;13364;49.084;9.978;2023-08-06T06:45:55;5.28;;;2.22;;
25437;SDS011;13364;49.084;9.978;2023-08-06T06:51:30;3.05;;;2.22;;
25437;SDS011;13364;49.084;9.978;2023-08-06T06:53:58;4.07;;;2.45;;
25437;SDS011;13364;49.084;9.978;2023-08-06T06:56:25;3.08;;;1.90;;
25437;SDS011;13364;49.084;9.978;2023-08-06T06:58:52;3.83;;;2.45;;
25437;SDS011;13364;49.084;9.978;2023-08-06T07:01:19;5.47;;;2.42;;
25437;SDS011;13364;49.084;9.978;2023-08-06T07:03:46;3.00;;;1.95;;
25437;SDS011;13364;49.084;9.978;2023-08-06T07:06:13;3.50;;;2.08;;
25437;SDS011;13364;49.084;9.978;2023-08-06T07:08:42;2.75;;;2.17;;
25437;SDS011;13364;49.084;9.978;2023-08-06T07:11:09;3.60;;;2.10;;
25437;SDS011;13364;49.084;9.978;2023-08-06T07:13:36;6.00;;;2.20;;
25437;SDS011;13364;49.084;9.978;2023-08-06T07:16:03;6.60;;;2.22;;
25437;SDS011;13364;49.084;9.978;2023-08-06T07:18:31;3.05;;;1.85;;
25437;SDS011;13364;49.084;9.978;2023-08-06T07:20:58;2.88;;;1.98;;
25437;SDS011;13364;49.084;9.978;2023-08-06T07:23:25;3.53;;;1.92;;
25437;SDS011;13364;49.084;9.978;2023-08-06T07:25:53;3.65;;;2.22;;
25437;SDS011;13364;49.084;9.978;2023-08-06T07:28:20;3.60;;;1.90;;
25437;SDS011;13364;49.084;9.978;2023-08-06T07:30:47;6.63;;;2.50;;
25437;SDS011;13364;49.084;9.978;2023-08-06T07:33:14;4.32;;;1.98;;
25437;SDS011;13364;49.084;9.978;2023-08-06T07:35:41;2.25;;;1.70;;
25437;SDS011;13364;49.084;9.978;2023-08-06T07:38:09;2.85;;;1.60;;
25437;SDS011;13364;49.084;9.978;2023-08-06T07:40:37;2.33;;;1.50;;
25437;SDS011;13364;49.084;9.978;2023-08-06T07:43:05;3.90;;;1.75;;
25437;SDS011;13364;49.084;9.978;2023-08-06T07:45:32;3.35;;;1.75;;
25437;SDS011;13364;49.084;9.978;2023-08-06T07:48:01;2.77;;;1.73;;
25437;SDS011;13364;49.084;9.978;2023-08-06T07:50:29;2.30;;;1.80;;
25437;SDS011;13364;49.084;9.978;2023-08-06T07:52:56;2.45;;;1.52;;
25437;SDS011;13364;49.084;9.978;2023-08-06T07:55:23;1.40;;;1.30;;
25437;SDS011;13364;49.084;9.978;2023-08-06T07:57:51;2.97;;;1.10;;
25437;SDS011;13364;49.084;9.978;2023-08-06T08:00:18;2.53;;;0.90;;
25437;SDS011;13364;49.084;9.978;2023-08-06T08:02:46;1.73;;;0.90;;
25437;SDS011;13364;49.084;9.978;2023-08-06T08:05:13;1.27;;;1.00;;
25437;SDS011;13364;49.084;9.978;2023-08-06T08:07:40;1.50;;;0.98;;
25437;SDS011;13364;49.084;9.978;2023-08-06T08:10:07;1.75;;;0.77;;
25437;SDS011;13364;49.084;9.978;2023-08-06T08:12:34;3.30;;;0.93;;
25437;SDS011;13364;49.084;9.978;2023-08-06T08:15:01;0.80;;;0.65;;
25437;SDS011;13364;49.084;9.978;2023-08-06T08:17:29;1.08;;;0.77;;
25437;SDS011;13364;49.084;9.978;2023-08-06T08:19:56;0.68;;;0.63;;
25437;SDS011;13364;49.084;9.978;2023-08-06T08:22:23;1.20;;;0.90;;
25437;SDS011;13364;49.084;9.978;2023-08-06T08:24:51;1.00;;;0.68;;
25437;SDS011;13364;49.084;9.978;2023-08-06T08:27:18;2.85;;;0.68;;
25437;SDS011;13364;49.084;9.978;2023-08-06T08:29:45;1.48;;;0.73;;
25437;SDS011;13364;49.084;9.978;2023-08-06T08:32:12;0.75;;;0.63;;
25437;SDS011;13364;49.084;9.978;2023-08-06T08:34:39;2.35;;;0.68;;
25437;SDS011;13364;49.084;9.978;2023-08-06T08:37:06;2.90;;;0.73;;
25437;SDS011;13364;49.084;9.978;2023-08-06T08:39:33;1.20;;;0.70;;
25437;SDS011;13364;49.084;9.978;2023-08-06T08:42:00;2.53;;;0.88;;
25437;SDS011;13364;49.084;9.978;2023-08-06T08:44:28;1.42;;;0.50;;
25437;SDS011;13364;49.084;9.978;2023-08-06T08:49:28;1.40;;;1.33;;
25437;SDS011;13364;49.084;9.978;2023-08-06T08:51:56;1.13;;;1.02;;
25437;SDS011;13364;49.084;9.978;2023-08-06T08:54:25;1.77;;;0.65;;
25437;SDS011;13364;49.084;9.978;2023-08-06T08:56:53;0.88;;;0.50;;
25437;SDS011;13364;49.084;9.978;2023-08-06T08:59:21;1.00;;;0.60;;
25437;SDS011;13364;49.084;9.978;2023-08-06T09:01:48;1.35;;;0.57;;
25437;SDS011;13364;49.084;9.978;2023-08-06T09:04:20;1.52;;;0.60;;
25437;SDS011;13364;49.084;9.978;2023-08-06T09:06:52;2.22;;;0.35;;
25437;SDS011;13364;49.084;9.978;2023-08-06T09:09:31;0.40;;;0.40;;
25437;SDS011;13364;49.084;9.978;2023-08-06T09:12:00;0.30;;;0.30;;
25437;SDS011;13364;49.084;9.978;2023-08-06T09:14:29;0.75;;;0.65;;
25437;SDS011;13364;49.084;9.978;2023-08-06T09:16:56;0.45;;;0.45;;
25437;SDS011;13364;49.084;9.978;2023-08-06T09:19:24;1.20;;;0.50;;
25437;SDS011;13364;49.084;9.978;2023-08-06T09:21:53;1.05;;;0.65;;
25437;SDS011;13364;49.084;9.978;2023-08-06T09:24:22;1.17;;;0.28;;
25437;SDS011;13364;49.084;9.978;2023-08-06T09:26:49;2.05;;;0.47;;
25437;SDS011;13364;49.084;9.978;2023-08-06T09:29:17;0.30;;;0.30;;
25437;SDS011;13364;49.084;9.978;2023-08-06T09:31:59;1.40;;;0.40;;
25437;SDS011;13364;49.084;9.978;2023-08-06T09:34:26;0.52;;;0.38;;
25437;SDS011;13364;49.084;9.978;2023-08-06T09:36:53;0.40;;;0.40;;
25437;SDS011;13364;49.084;9.978;2023-08-06T09:39:28;0.30;;;0.30;;
25437;SDS011;13364;49.084;9.978;2023-08-06T09:41:56;0.22;;;0.22;;
25437;SDS011;13364;49.084;9.978;2023-08-06T09:44:26;0.70;;;0.40;;
25437;SDS011;13364;49.084;9.978;2023-08-06T09:46:55;0.40;;;0.40;;
25437;SDS011;13364;49.084;9.978;2023-08-06T09:49:26;0.52;;;0.40;;
25437;SDS011;13364;49.084;9.978;2023-08-06T09:51:55;1.35;;;0.60;;
25437;SDS011;13364;49.084;9.978;2023-08-06T09:54:25;0.52;;;0.50;;
25437;SDS011;13364;49.084;9.978;2023-08-06T09:56:54;0.32;;;0.32;;
25437;SDS011;13364;49.084;9.978;2023-08-06T10:03:00;2.92;;;0.60;;
25437;SDS011;13364;49.084;9.978;2023-08-06T10:05:28;0.45;;;0.45;;
25437;SDS011;13364;49.084;9.978;2023-08-06T10:07:57;0.40;;;0.40;;
25437;SDS011;13364;49.084;9.978;2023-08-06T10:10:27;2.70;;;0.52;;
25437;SDS011;13364;49.084;9.978;2023-08-06T10:12:56;0.40;;;0.40;;
25437;SDS011;13364;49.084;9.978;2023-08-06T10:15:25;0.30;;;0.30;;
25437;SDS011;13364;49.084;9.978;2023-08-06T10:17:54;2.05;;;1.83;;
25437;SDS011;13364;49.084;9.978;2023-08-06T10:20:24;3.25;;;0.60;;
25437;SDS011;13364;49.084;9.978;2023-08-06T10:23:00;0.40;;;0.40;;
25437;SDS011;13364;49.084;9.978;2023-08-06T10:25:31;4.72;;;0.60;;
25437;SDS011;13364;49.084;9.978;2023-08-06T10:28:12;0.95;;;0.40;;
25437;SDS011;13364;49.084;9.978;2023-08-06T10:30:45;0.70;;;0.40;;
25437;SDS011;13364;49.084;9.978;2023-08-06T10:36:37;1.00;;;0.13;;
25437;SDS011;13364;49.084;9.978;2023-08-06T10:39:05;2.30;;;0.40;;
25437;SDS011;13364;49.084;9.978;2023-08-06T10:41:42;2.95;;;0.43;;
25437;SDS011;13364;49.084;9.978;2023-08-06T10:44:10;0.82;;;0.30;;
25437;SDS011;13364;49.084;9.978;2023-08-06T10:46:38;0.30;;;0.30;;
25437;SDS011;13364;49.084;9.978;2023-08-06T10:49:06;0.90;;;0.32;;
25437;SDS011;13364;49.084;9.978;2023-08-06T10:51:34;0.25;;;0.25;;
25437;SDS011;13364;49.084;9.978;2023-08-06T10:54:05;2.28;;;0.30;;
25437;SDS011;13364;49.084;9.978;2023-08-06T10:56:39;0.75;;;0.40;;
25437;SDS011;13364;49.084;9.978;2023-08-06T10:59:08;0.20;;;0.20;;
25437;SDS011;13364;49.084;9.978;2023-08-06T11:01:37;0.55;;;0.40;;
25437;SDS011;13364;49.084;9.978;2023-08-06T11:04:05;0.40;;;0.40;;
25437;SDS011;13364;49.084;9.978;2023-08-06T11:06:33;0.38;;;0.30;;
25437;SDS011;13364;49.084;9.978;2023-08-06T11:09:01;0.22;;;0.22;;
25437;SDS011;13364;49.084;9.978;2023-08-06T11:11:28;0.20;;;0.20;;
25437;SDS011;13364;49.084;9.978;2023-08-06T11:13:55;0.35;;;0.30;;
25437;SDS011;13364;49.084;9.978;2023-08-06T11:16:24;1.30;;;0.38;;
25437;SDS011;13364;49.084;9.978;2023-08-06T11:18:51;0.52;;;0.13;;
25437;SDS011;13364;49.084;9.978;2023-08-06T11:21:21;0.28;;;0.20;;
25437;SDS011;13364;49.084;9.978;2023-08-06T11:23:49;0.47;;;0.15;;
25437;SDS011;13364;49.084;9.978;2023-08-06T11:26:20;1.40;;;0.30;;
25437;SDS011;13364;49.084;9.978;2023-08-06T11:28:49;0.20;;;0.20;;
25437;SDS011;13364;49.084;9.978;2023-08-06T11:31:23;0.20;;;0.20;;
25437;SDS011;13364;49.084;9.978;2023-08-06T11:33:54;0.70;;;0.20;;
25437;SDS011;13364;49.084;9.978;2023-08-06T11:36:31;0.70;;;0.40;;
25437;SDS011;13364;49.084;9.978;2023-08-06T11:38:59;0.25;;;0.20;;
25437;SDS011;13364;49.084;9.978;2023-08-06T11:41:30;0.30;;;0.30;;
25437;SDS011;13364;49.084;9.978;2023-08-06T11:43:58;0.25;;;0.15;;
25437;SDS011;13364;49.084;9.978;2023-08-06T11:46:26;0.40;;;0.40;;
25437;SDS011;13364;49.084;9.978;2023-08-06T11:48:58;1.55;;;0.28;;
25437;SDS011;13364;49.084;9.978;2023-08-06T11:51:25;0.20;;;0.20;;
25437;SDS011;13364;49.084;9.978;2023-08-06T11:53:56;0.60;;;0.32;;
25437;SDS011;13364;49.084;9.978;2023-08-06T11:56:25;1.17;;;0.35;;
25437;SDS011;13364;49.084;9.978;2023-08-06T11:58:54;0.30;;;0.30;;
25437;SDS011;13364;49.084;9.978;2023-08-06T12:01:21;0.30;;;0.30;;
25437;SDS011;13364;49.084;9.978;2023-08-06T12:03:48;0.60;;;0.50;;
25437;SDS011;13364;49.084;9.978;2023-08-06T12:06:15;0.40;;;0.40;;
25437;SDS011;13364;49.084;9.978;2023-08-06T12:08:46;0.70;;;0.45;;
25437;SDS011;13364;49.084;9.978;2023-08-06T12:11:14;0.30;;;0.30;;
25437;SDS011;13364;49.084;9.978;2023-08-06T12:13:41;1.10;;;0.50;;
25437;SDS011;13364;49.084;9.978;2023-08-06T12:16:08;0.68;;;0.65;;
25437;SDS011;13364;49.084;9.978;2023-08-06T12:18:36;0.70;;;0.50;;
25437;SDS011;13364;49.084;9.978;2023-08-06T12:21:03;0.57;;;0.55;;
25437;SDS011;13364;49.084;9.978;2023-08-06T12:23:30;0.50;;;0.50;;
25437;SDS011;13364;49.084;9.978;2023-08-06T12:25:59;0.50;;;0.50;;
25437;SDS011;13364;49.084;9.978;2023-08-06T12:28:26;1.23;;;0.50;;
25437;SDS011;13364;49.084;9.978;2023-08-06T12:30:53;0.50;;;0.50;;
25437;SDS011;13364;49.084;9.978;2023-08-06T12:33:21;1.15;;;0.60;;
25437;SDS011;13364;49.084;9.978;2023-08-06T12:35:49;0.63;;;0.40;;
25437;SDS011;13364;49.084;9.978;2023-08-06T12:38:16;0.40;;;0.40;;
25437;SDS011;13364;49.084;9.978;2023-08-06T12:40:43;2.45;;;0.70;;
25437;SDS011;13364;49.084;9.978;2023-08-06T12:43:10;0.50;;;0.50;;
25437;SDS011;13364;49.084;9.978;2023-08-06T12:45:37;2.60;;;0.55;;
25437;SDS011;13364;49.084;9.978;2023-08-06T12:48:04;0.50;;;0.50;;
25437;SDS011;13364;49.084;9.978;2023-08-06T12:50:32;0.52;;;0.52;;
25437;SDS011;13364;49.084;9.978;2023-08-06T12:55:30;1.27;;;0.82;;
25437;SDS011;13364;49.084;9.978;2023-08-06T12:57:59;2.08;;;0.70;;
25437;SDS011;13364;49.084;9.978;2023-08-06T13:00:26;0.73;;;0.73;;
25437;SDS011;13364;49.084;9.978;2023-08-06T13:02:54;1.00;;;0.73;;
25437;SDS011;13364;49.084;9.978;2023-08-06T13:05:21;1.13;;;0.88;;
25437;SDS011;13364;49.084;9.978;2023-08-06T13:07:48;0.82;;;0.80;;
25437;SDS011;13364;49.084;9.978;2023-08-06T13:10:16;1.25;;;0.98;;
25437;SDS011;13364;49.084;9.978;2023-08-06T13:12:43;2.22;;;0.93;;
25437;SDS011;13364;49.084;9.978;2023-08-06T13:15:10;1.15;;;1.05;;
25437;SDS011;13364;49.084;9.978;2023-08-06T13:17:38;0.95;;;0.90;;
25437;SDS011;13364;49.084;9.978;2023-08-06T13:20:06;1.60;;;1.00;;
25437;SDS011;13364;49.084;9.978;2023-08-06T13:22:33;3.33;;;1.33;;
25437;SDS011;13364;49.084;9.978;2023-08-06T13:25:00;2.05;;;1.48;;
25437;SDS011;13364;49.084;9.978;2023-08-06T13:27:27;1.50;;;1.27;;
25437;SDS011;13364;49.084;9.978;2023-08-06T13:29:54;1.70;;;1.50;;
25437;SDS011;13364;49.084;9.978;2023-08-06T13:32:21;3.13;;;1.50;;
25437;SDS011;13364;49.084;9.978;2023-08-06T13:34:49;1.70;;;1.55;;
25437;SDS011;13364;49.084;9.978;2023-08-06T13:37:16;2.85;;;1.50;;
25437;SDS011;13364;49.084;9.978;2023-08-06T13:39:43;2.42;;;1.92;;
25437;SDS011;13364;49.084;9.978;2023-08-06T13:42:10;4.40;;;1.60;;
25437;SDS011;13364;49.084;9.978;2023-08-06T13:48:07;3.28;;;1.90;;
25437;SDS011;13364;49.084;9.978;2023-08-06T13:50:36;2.50;;;2.30;;
25437;SDS011;13364;49.084;9.978;2023-08-06T13:53:13;5.30;;;2.22;;
25437;SDS011;13364;49.084;9.978;2023-08-06T13:55:41;2.40;;;2.20;;
25437;SDS011;13364;49.084;9.978;2023-08-06T13:58:08;3.05;;;2.40;;
25437;SDS011;13364;49.084;9.978;2023-08-06T14:00:35;2.88;;;2.40;;
25437;SDS011;13364;49.084;9.978;2023-08-06T14:03:03;2.90;;;2.03;;
25437;SDS011;13364;49.084;9.978;2023-08-06T14:05:30;3.85;;;1.88;;
25437;SDS011;13364;49.084;9.978;2023-08-06T14:07:57;2.28;;;2.00;;
25437;SDS011;13364;49.084;9.978;2023-08-06T14:10:24;2.20;;;1.88;;
25437;SDS011;13364;49.084;9.978;2023-08-06T14:12:51;1.92;;;1.75;;
25437;SDS011;13364;49.084;9.978;2023-08-06T14:15:39;8.02;;;2.15;;
25437;SDS011;13364;49.084;9.978;2023-08-06T14:18:07;3.78;;;1.80;;
25437;SDS011;13364;49.084;9.978;2023-08-06T14:20:34;3.08;;;1.80;;
25437;SDS011;13364;49.084;9.978;2023-08-06T14:23:02;3.35;;;1.88;;
25437;SDS011;13364;49.084;9.978;2023-08-06T14:25:29;3.47;;;1.90;;
25437;SDS011;13364;49.084;9.978;2023-08-06T14:27:56;2.72;;;1.67;;
25437;SDS011;13364;49.084;9.978;2023-08-06T14:30:23;2.75;;;1.67;;
25437;SDS011;13364;49.084;9.978;2023-08-06T14:32:50;2.20;;;1.73;;
25437;SDS011;13364;49.084;9.978;2023-08-06T14:35:17;3.67;;;1.85;;
25437;SDS011;13364;49.084;9.978;2023-08-06T14:37:44;1.30;;;1.13;;
25437;SDS011;13364;49.084;9.978;2023-08-06T14:40:12;1.75;;;1.30;;
25437;SDS011;13364;49.084;9.978;2023-08-06T14:42:39;2.10;;;1.42;;
25437;SDS011;13364;49.084;9.978;2023-08-06T14:45:06;0.88;;;0.88;;
25437;SDS011;13364;49.084;9.978;2023-08-06T14:47:34;1.38;;;1.10;;
25437;SDS011;13364;49.084;9.978;2023-08-06T14:50:02;1.20;;;1.10;;
25437;SDS011;13364;49.084;9.978;2023-08-06T14:52:29;1.25;;;1.00;;
25437;SDS011;13364;49.084;9.978;2023-08-06T14:54:56;1.27;;;1.02;;
25437;SDS011;13364;49.084;9.978;2023-08-06T15:00:03;2.92;;;0.95;;
25437;SDS011;13364;49.084;9.978;2023-08-06T15:02:32;1.00;;;0.90;;
25437;SDS011;13364;49.084;9.978;2023-08-06T15:04:59;1.13;;;1.02;;
25437;SDS011;13364;49.084;9.978;2023-08-06T15:07:27;1.08;;;0.60;;
25437;SDS011;13364;49.084;9.978;2023-08-06T15:10:05;1.65;;;1.00;;
25437;SDS011;13364;49.084;9.978;2023-08-06T15:12:52;2.25;;;0.93;;
25437;SDS011;13364;49.084;9.978;2023-08-06T15:18:08;1.23;;;1.13;;
25437;SDS011;13364;49.084;9.978;2023-08-06T15:20:36;1.40;;;0.80;;
25437;SDS011;13364;49.084;9.978;2023-08-06T15:23:07;1.20;;;1.10;;
25437;SDS011;13364;49.084;9.978;2023-08-06T15:25:34;1.27;;;0.90;;
25437;SDS011;13364;49.084;9.978;2023-08-06T15:28:02;2.33;;;1.40;;
25437;SDS011;13364;49.084;9.978;2023-08-06T15:30:29;1.17;;;0.80;;
25437;SDS011;13364;49.084;9.978;2023-08-06T15:32:59;1.60;;;0.90;;
25437;SDS011;13364;49.084;9.978;2023-08-06T15:35:28;1.38;;;0.90;;
25437;SDS011;13364;49.084;9.978;2023-08-06T15:37:55;3.55;;;0.93;;